Roma, Italia

03:12 AM CET die 23o December, anno 2014 (GMT +0100)
Roma Ardeatina - Grotta Perfetta | Change Station
CLOSE
Current Station
Personal Weather Stations
Location: Rome, LAZIO
Elevation: 128 ft
Nearby Weather Stations

Elev 128 ft 41.83 °N, 12.51 °E | Updated 5 seconds ago

Partly Cloudy
Partialiter Nubila
44.8 °F
Feels Like 45 °F
N
2.7
Ventus Variabilis Ventus from Aquilo
Gusts 2.7 mph

Hodie
High -- | Low -- °F
--% Chance of Precip.
Yesterday
High -- | Low -- °F
Precip. -- in
7:34 AM 4:43 PM
New, 1% visible
Pressio 30.42 in
Visibilitas 6.2 milia passuum
Clouds Few 8000 ft
Frigus Venti 45 °F
Frigus in quo Ros apparet 40 °F
Umor 83%
Rainfall 0.00 in
Snow Depth Not available.
UV 0 out of 12
Pollen Not available.
Air Quality Not available.
Flu Activity Not available.
METAR LIRA 230145Z 00000KT 9999 FEW080 05/03 Q1030

More Conditions Fewer Conditions

Pressio 30.42 in
Visibilitas 6.2 milia passuum
Clouds Few 8000 ft
Frigus Venti 45 °F
Frigus in quo Ros apparet 40 °F
Umor 83%
Rainfall 0.00 in
Snow Depth Not available.
UV 0 out of 12
Pollen Not available.
Air Quality Not available.
Flu Activity Not available.
METAR LIRA 230145Z 00000KT 9999 FEW080 05/03 Q1030

More Conditions Fewer Conditions

10-Day Weather Forecast

Almanac

Astronomy

Dec. 23, 2014 Rise Set
Actual Time
Civil Twilight
Nautical Twilight
Astronomical Twilight
Moon
Length Of Visible Light
Length of Day
Tomorrow will be .
, % of the Moon is Illuminated

Today's Extremes

Country Highs Country Lows

Community

WunderPhotos

Upload Photos

1,779,761 photos uploaded!

WunderBlogs® & News

Nearby

Air Quality

  Air Quality AQ Index Pollutant
Not available.

Snow Depth

Station Depth Elevation

Earthquake Activity

City Distance Mag. Time & Date
Minimum magnitude displayed is 2.5.

Coastal Water Temperatures

Locus Calor

Nearby Weather Stations